Time;durP1;ratioP1;P1;durP2;ratioP2;P2;SDS_P1;SDS_P2;PMS_P1;PMS_P2;Temp;Humidity;BMP_temperature;BMP_pressure;BME280_temperature;BME280_humidity;BME280_pressure;Samples;Min_cycle;Max_cycle;Signal;HPM_P1;HPM_P2
2021/10/23 04:30:43;;;;;;;11.57;2.63;;;7.10;99.90;;;;;;5966044;23;20374;-73
2021/10/23 04:33:09;;;;;;;6.47;2.60;;;7.10;99.90;;;;;;4941609;28;20493;-74
2021/10/23 04:35:34;;;;;;;4.73;1.60;;;7.10;99.90;;;;;;4948217;28;20864;-74
2021/10/23 04:38:00;;;;;;;4.40;1.53;;;7.10;99.90;;;;;;4934699;29;20269;-74
2021/10/23 04:40:25;;;;;;;3.10;2.13;;;7.10;99.90;;;;;;4935056;29;20208;-72
2021/10/23 04:42:51;;;;;;;7.10;2.23;;;7.10;99.90;;;;;;4934438;29;20176;-73
2021/10/23 04:45:17;;;;;;;5.83;1.73;;;7.10;99.90;;;;;;4934890;29;20189;-75
2021/10/23 04:47:42;;;;;;;3.30;2.07;;;7.10;99.90;;;;;;4933422;29;20224;-75
2021/10/23 04:50:08;;;;;;;7.03;2.17;;;7.10;99.90;;;;;;4934816;29;20600;-75
2021/10/23 04:52:33;;;;;;;4.47;2.00;;;7.10;99.90;;;;;;4934158;29;20202;-75
2021/10/23 04:54:59;;;;;;;5.37;2.43;;;7.10;99.90;;;;;;4933603;29;20216;-75
2021/10/23 04:57:24;;;;;;;9.13;2.27;;;7.10;99.90;;;;;;4934489;29;20177;-76
2021/10/23 04:59:50;;;;;;;4.70;1.67;;;7.20;99.90;;;;;;4934739;29;20275;-75
2021/10/23 05:02:15;;;;;;;3.57;2.37;;;7.10;99.90;;;;;;4933956;29;20204;-74
2021/10/23 05:04:41;;;;;;;2.50;2.17;;;7.20;99.90;;;;;;4934603;29;20178;-76
2021/10/23 05:07:07;;;;;;;11.50;3.03;;;7.20;99.90;;;;;;4934501;29;20207;-75
2021/10/23 05:09:33;;;;;;;5.20;2.00;;;7.20;99.90;;;;;;4934467;29;20232;-76
2021/10/23 05:11:58;;;;;;;3.27;2.00;;;7.20;99.90;;;;;;4933110;29;20449;-75
2021/10/23 05:14:24;;;;;;;4.00;1.60;;;7.20;99.90;;;;;;4934105;29;20539;-75
2021/10/23 05:16:49;;;;;;;6.83;2.43;;;7.20;99.90;;;;;;4934606;29;20262;-75
2021/10/23 05:19:15;;;;;;;9.73;2.10;;;7.20;99.90;;;;;;4934101;29;20171;-75
2021/10/23 05:21:40;;;;;;;3.07;2.00;;;7.20;99.90;;;;;;4934384;29;20216;-75
2021/10/23 05:24:06;;;;;;;2.97;2.27;;;7.20;99.90;;;;;;4934174;29;20258;-75
2021/10/23 05:26:31;;;;;;;5.60;2.40;;;7.20;99.90;;;;;;4934248;29;20207;-75
2021/10/23 05:28:57;;;;;;;3.60;1.73;;;7.20;99.90;;;;;;4934391;29;20193;-75
2021/10/23 05:31:23;;;;;;;3.10;2.63;;;7.20;99.90;;;;;;4933975;29;20213;-75
2021/10/23 05:33:48;;;;;;;7.70;2.57;;;7.20;99.90;;;;;;4934048;29;20187;-75
2021/10/23 05:36:14;;;;;;;6.83;2.50;;;7.20;99.90;;;;;;4933973;29;20298;-75
2021/10/23 05:38:39;;;;;;;6.10;2.83;;;7.20;99.90;;;;;;4934238;29;20538;-75
2021/10/23 05:41:05;;;;;;;5.43;2.13;;;7.20;99.90;;;;;;4933992;29;20203;-75
2021/10/23 05:43:31;;;;;;;5.50;2.13;;;7.20;99.90;;;;;;4938083;29;20184;-76
2021/10/23 05:45:57;;;;;;;6.00;2.57;;;7.20;99.90;;;;;;4940620;29;20207;-75
2021/10/23 05:48:23;;;;;;;4.63;2.40;;;7.20;99.90;;;;;;4940317;29;20515;-76
2021/10/23 05:50:48;;;;;;;6.07;2.53;;;7.30;99.90;;;;;;4940551;29;20238;-75
2021/10/23 05:53:14;;;;;;;4.43;2.20;;;7.30;99.90;;;;;;4940164;29;20650;-75
2021/10/23 05:55:39;;;;;;;3.73;2.87;;;7.30;99.90;;;;;;4939116;29;20222;-75
2021/10/23 05:58:05;;;;;;;6.27;2.10;;;7.30;99.90;;;;;;4938406;29;20180;-75
2021/10/23 06:00:35;;;;;;;4.70;2.40;;;7.30;99.90;;;;;;4940384;29;20187;-72
2021/10/23 06:03:01;;;;;;;14.37;2.73;;;7.30;99.90;;;;;;4940052;29;20586;-73
2021/10/23 06:05:27;;;;;;;4.40;2.20;;;7.40;99.90;;;;;;4940246;29;20499;-74
2021/10/23 06:07:53;;;;;;;5.67;2.60;;;7.40;99.90;;;;;;4938972;29;20438;-73
2021/10/23 06:10:19;;;;;;;3.80;2.50;;;7.50;99.90;;;;;;4940071;29;20571;-73
2021/10/23 06:12:45;;;;;;;5.20;2.60;;;7.60;99.90;;;;;;4939926;29;20521;-73
2021/10/23 06:15:11;;;;;;;4.37;1.93;;;7.70;99.90;;;;;;4940199;29;20220;-74
2021/10/23 06:17:37;;;;;;;8.33;2.33;;;7.70;99.90;;;;;;4940392;29;20537;-74
2021/10/23 06:20:03;;;;;;;3.00;2.50;;;7.70;99.90;;;;;;4939803;29;20435;-73
2021/10/23 06:22:29;;;;;;;4.57;2.07;;;7.80;99.90;;;;;;4940225;29;20427;-73
2021/10/23 06:24:55;;;;;;;3.90;1.90;;;7.90;99.90;;;;;;4940045;29;20431;-74
2021/10/23 06:27:20;;;;;;;8.70;2.03;;;7.90;99.90;;;;;;4940063;29;20405;-73
2021/10/23 06:29:46;;;;;;;4.57;1.93;;;7.90;99.90;;;;;;4940067;29;20177;-73
2021/10/23 06:32:11;;;;;;;5.50;2.10;;;8.00;99.90;;;;;;4938414;29;20220;-74
2021/10/23 06:34:41;;;;;;;4.80;2.03;;;8.00;99.90;;;;;;4940186;29;20226;-73
2021/10/23 06:37:09;;;;;;;5.00;2.13;;;8.00;99.90;;;;;;4940045;29;20597;-73
2021/10/23 06:39:36;;;;;;;5.47;2.67;;;8.00;99.90;;;;;;4940127;29;20431;-74
2021/10/23 06:42:03;;;;;;;8.00;1.90;;;8.00;99.90;;;;;;4939660;29;20517;-74
2021/10/23 06:44:28;;;;;;;3.40;2.00;;;8.00;99.90;;;;;;4940055;29;20429;-74
2021/10/23 06:46:54;;;;;;;6.07;2.13;;;8.00;99.90;;;;;;4939779;29;20411;-73
2021/10/23 06:49:19;;;;;;;8.70;2.60;;;8.00;99.90;;;;;;4940135;29;20179;-74
2021/10/23 06:51:45;;;;;;;4.30;2.43;;;8.10;99.90;;;;;;4939618;29;20289;-74
2021/10/23 06:54:10;;;;;;;4.90;1.90;;;8.10;99.90;;;;;;4938579;29;20261;-74
2021/10/23 06:56:36;;;;;;;3.53;2.00;;;8.20;99.90;;;;;;4936897;29;20183;-73
2021/10/23 06:59:01;;;;;;;5.07;1.73;;;8.20;99.90;;;;;;4936755;29;20227;-74
2021/10/23 07:01:27;;;;;;;3.80;2.30;;;8.30;99.90;;;;;;4937020;29;20237;-73
2021/10/23 07:03:53;;;;;;;12.53;2.23;;;8.40;99.90;;;;;;4942925;29;20182;-73
2021/10/23 07:06:18;;;;;;;3.87;2.53;;;8.40;99.90;;;;;;4946157;28;20190;-73
2021/10/23 07:08:44;;;;;;;8.70;2.43;;;8.50;99.90;;;;;;4946518;29;20410;-73
2021/10/23 07:11:10;;;;;;;12.83;2.40;;;8.60;99.90;;;;;;4936657;29;20203;-74
2021/10/23 07:13:36;;;;;;;6.43;2.80;;;8.80;99.90;;;;;;4936416;29;20181;-73
2021/10/23 07:16:02;;;;;;;6.93;2.30;;;8.80;99.90;;;;;;4936475;29;20478;-73
2021/10/23 07:18:27;;;;;;;8.33;2.47;;;9.00;99.90;;;;;;4936556;29;20384;-71
2021/10/23 07:20:53;;;;;;;5.37;1.87;;;9.10;99.90;;;;;;4936295;29;20532;-73
2021/10/23 07:23:19;;;;;;;4.20;1.87;;;9.30;99.90;;;;;;4936071;29;20661;-74
2021/10/23 07:25:46;;;;;;;3.57;2.17;;;9.40;99.90;;;;;;4936428;29;20180;-72
2021/10/23 07:28:12;;;;;;;3.10;2.17;;;9.70;99.90;;;;;;4936249;29;20715;-72
2021/10/23 07:30:38;;;;;;;8.10;2.87;;;9.90;99.90;;;;;;4936181;29;20425;-73
2021/10/23 07:33:03;;;;;;;4.60;2.40;;;10.20;99.90;;;;;;4947633;29;20431;-74
2021/10/23 07:35:29;;;;;;;11.57;1.77;;;10.60;99.90;;;;;;4955316;29;20211;-74
2021/10/23 07:37:54;;;;;;;2.20;1.80;;;11.50;99.90;;;;;;4955152;29;20658;-73
2021/10/23 07:40:20;;;;;;;6.80;2.10;;;12.60;99.90;;;;;;4955224;29;20181;-74
2021/10/23 07:42:45;;;;;;;6.10;1.50;;;13.70;99.90;;;;;;4954774;29;20203;-75
2021/10/23 07:45:12;;;;;;;9.33;1.90;;;14.50;99.90;;;;;;4955271;29;20181;-72
2021/10/23 07:47:39;;;;;;;2.10;1.47;;;15.20;99.90;;;;;;4955311;28;20179;-74
2021/10/23 07:50:06;;;;;;;2.93;1.53;;;15.30;99.90;;;;;;4955084;28;20430;-74
2021/10/23 07:52:31;;;;;;;4.60;2.00;;;15.20;99.90;;;;;;4954906;28;20439;-73
2021/10/23 07:54:57;;;;;;;5.73;2.23;;;15.10;99.90;;;;;;4954890;29;21666;-74
2021/10/23 07:57:22;;;;;;;4.43;2.07;;;15.20;99.90;;;;;;4955083;29;20545;-74
2021/10/23 07:59:48;;;;;;;1.27;1.17;;;15.00;99.90;;;;;;4954830;29;20177;-73
2021/10/23 08:02:13;;;;;;;5.33;1.53;;;14.90;99.90;;;;;;4954647;29;20192;-72
2021/10/23 08:04:39;;;;;;;3.17;1.80;;;14.50;99.90;;;;;;4955053;29;20275;-73
2021/10/23 08:07:08;;;;;;;6.83;1.73;;;14.60;99.90;;;;;;4954193;28;20173;-74
2021/10/23 08:09:35;;;;;;;7.30;2.10;;;14.50;99.90;;;;;;4954864;29;20188;-74
2021/10/23 08:12:02;;;;;;;7.73;1.93;;;14.30;99.90;;;;;;4954282;28;20475;-71
2021/10/23 08:14:28;;;;;;;4.80;1.83;;;14.40;99.90;;;;;;4953978;28;20466;-74
2021/10/23 08:16:55;;;;;;;3.47;1.70;;;14.90;99.90;;;;;;4953236;28;20500;-74
2021/10/23 08:19:21;;;;;;;10.23;1.87;;;14.80;99.90;;;;;;4954218;28;20412;-74
2021/10/23 08:21:46;;;;;;;4.63;2.03;;;14.90;99.90;;;;;;4953965;29;20436;-74
2021/10/23 08:24:12;;;;;;;7.53;1.90;;;15.00;99.90;;;;;;4954432;29;20475;-75
2021/10/23 08:26:39;;;;;;;5.53;2.30;;;15.00;99.90;;;;;;4954380;29;20188;-74
2021/10/23 08:29:05;;;;;;;7.17;1.63;;;15.30;99.90;;;;;;4954354;28;20181;-74
2021/10/23 08:31:31;;;;;;;4.00;2.07;;;15.50;99.90;;;;;;4954145;29;20467;-75
2021/10/23 08:33:57;;;;;;;2.30;1.60;;;15.60;99.90;;;;;;4953954;29;20184;-74
2021/10/23 08:36:23;;;;;;;6.73;2.90;;;15.60;99.90;;;;;;4954314;29;20239;-74
2021/10/23 08:38:50;;;;;;;3.37;1.80;;;15.60;99.90;;;;;;4953977;29;20412;-76
2021/10/23 08:41:17;;;;;;;5.40;1.70;;;15.30;99.90;;;;;;4954300;28;20506;-74
2021/10/23 08:43:43;;;;;;;3.77;2.20;;;15.50;99.90;;;;;;4953843;28;20860;-74
2021/10/23 08:46:15;;;;;;;5.23;1.80;;;15.80;99.90;;;;;;4954305;28;20455;-74
2021/10/23 08:48:49;;;;;;;2.27;1.70;;;16.20;99.90;;;;;;4953926;28;20416;-74
2021/10/23 08:51:16;;;;;;;4.17;1.97;;;16.30;99.90;;;;;;4954079;28;20801;-74
2021/10/23 08:53:42;;;;;;;2.73;2.03;;;16.30;99.90;;;;;;4953667;28;20423;-74
2021/10/23 08:56:09;;;;;;;6.23;1.70;;;16.50;99.90;;;;;;4953950;28;21034;-74
2021/10/23 08:58:35;;;;;;;7.17;1.80;;;16.60;99.90;;;;;;4953959;28;20905;-74
2021/10/23 09:01:01;;;;;;;4.70;2.47;;;16.30;99.90;;;;;;4952534;28;20446;-75
2021/10/23 09:03:27;;;;;;;3.30;1.93;;;15.70;99.90;;;;;;4953584;28;20555;-74
2021/10/23 09:05:52;;;;;;;4.10;1.80;;;15.10;99.90;;;;;;4953692;29;20412;-74
2021/10/23 09:08:18;;;;;;;3.50;1.97;;;14.50;99.90;;;;;;4953850;29;20183;-72
2021/10/23 09:10:49;;;;;;;6.10;3.57;;;13.90;99.90;;;;;;4953563;28;20177;-74
2021/10/23 09:13:29;;;;;;;3.17;2.27;;;13.60;99.90;;;;;;4953619;28;20768;-75
2021/10/23 09:15:55;;;;;;;4.43;2.20;;;13.90;99.90;;;;;;4953467;28;20546;-74
2021/10/23 09:18:39;;;;;;;5.37;2.57;;;14.80;99.90;;;;;;4951717;28;20487;-74
2021/10/23 09:21:18;;;;;;;4.03;2.00;;;15.10;99.90;;;;;;4953380;28;20439;-74
2021/10/23 09:23:44;;;;;;;6.50;2.30;;;15.10;99.90;;;;;;4953389;28;20789;-74
2021/10/23 09:26:33;;;;;;;7.80;2.10;;;14.70;99.90;;;;;;4953474;28;20416;-75
2021/10/23 09:29:19;;;;;;;3.60;2.13;;;14.60;99.90;;;;;;4953543;28;20423;-74
2021/10/23 09:31:47;;;;;;;4.70;1.43;;;14.20;99.90;;;;;;4953068;28;20513;-73
2021/10/23 09:34:16;;;;;;;8.23;1.87;;;14.00;99.90;;;;;;4953325;28;20757;-74
2021/10/23 09:36:55;;;;;;;4.60;2.30;;;13.90;99.90;;;;;;4953386;28;20412;-73
2021/10/23 09:39:23;;;;;;;5.27;1.93;;;13.90;99.90;;;;;;4953682;28;20507;-75
2021/10/23 09:42:17;;;;;;;9.13;3.07;;;13.60;99.90;;;;;;4953009;28;20451;-74
2021/10/23 09:45:04;;;;;;;3.57;3.27;;;13.40;99.90;;;;;;4953709;28;20421;-74
2021/10/23 09:47:34;;;;;;;7.70;2.57;;;13.10;99.90;;;;;;4953793;28;20431;-73
2021/10/23 09:50:05;;;;;;;8.97;3.07;;;13.00;99.90;;;;;;4953400;28;20420;-74
2021/10/23 09:52:34;;;;;;;7.00;2.63;;;12.90;99.90;;;;;;4952982;28;21016;-74
2021/10/23 09:55:08;;;;;;;8.13;2.97;;;12.70;99.90;;;;;;4953359;29;20468;-74
2021/10/23 09:57:34;;;;;;;5.27;2.20;;;12.50;99.90;;;;;;4952171;29;20431;-73
2021/10/23 10:00:11;;;;;;;8.40;6.03;;;12.30;99.90;;;;;;4953108;29;20417;-73
2021/10/23 10:02:38;;;;;;;3.90;2.43;;;12.20;99.90;;;;;;4952998;28;20428;-74
2021/10/23 10:05:05;;;;;;;9.40;3.03;;;12.10;99.90;;;;;;4953235;28;20447;-74
2021/10/23 10:07:32;;;;;;;4.63;2.13;;;12.00;99.90;;;;;;4937191;28;20465;-74
2021/10/23 10:09:59;;;;;;;4.80;2.37;;;12.10;99.90;;;;;;4934100;29;20873;-73
2021/10/23 10:12:27;;;;;;;7.60;2.97;;;12.10;99.90;;;;;;4933648;29;20440;-73
2021/10/23 10:14:53;;;;;;;6.07;3.10;;;12.30;99.90;;;;;;4934019;29;20473;-73
2021/10/23 10:17:21;;;;;;;6.93;3.00;;;12.20;99.90;;;;;;4931839;29;20507;-74
2021/10/23 10:19:47;;;;;;;6.10;2.57;;;12.70;99.90;;;;;;4933568;29;20413;-73
2021/10/23 10:22:13;;;;;;;5.20;2.43;;;13.60;99.90;;;;;;4933600;29;20437;-73
2021/10/23 10:24:39;;;;;;;6.37;2.53;;;14.30;99.90;;;;;;4933787;29;20424;-74
2021/10/23 10:27:09;;;;;;;6.53;3.20;;;15.00;99.90;;;;;;4933756;29;20186;-74
2021/10/23 10:29:51;;;;;;;13.60;2.90;;;15.60;99.90;;;;;;4935721;29;20178;-73
2021/10/23 10:32:36;;;;;;;5.07;3.30;;;15.90;99.90;;;;;;4936782;29;20463;-73
2021/10/23 10:37:58;;;;;;;8.67;3.10;;;16.50;99.90;;;;;;4937172;29;20502;-73
2021/10/23 10:40:43;;;;;;;4.20;3.07;;;16.30;99.90;;;;;;4937145;29;20421;-73
2021/10/23 10:43:12;;;;;;;4.80;2.93;;;16.30;99.90;;;;;;4936959;29;20427;-74
2021/10/23 10:45:41;;;;;;;4.23;2.90;;;16.60;99.90;;;;;;4937106;29;20807;-74
2021/10/23 10:48:07;;;;;;;6.23;2.43;;;16.60;99.90;;;;;;4935703;29;20437;-74
2021/10/23 10:50:34;;;;;;;3.70;2.00;;;16.80;99.90;;;;;;4936827;29;20448;-71
2021/10/23 10:53:16;;;;;;;7.00;2.37;;;16.40;99.90;;;;;;4936569;29;20267;-73
2021/10/23 10:55:44;;;;;;;4.10;2.00;;;16.10;99.90;;;;;;4935591;29;20469;-74
2021/10/23 10:58:11;;;;;;;4.43;2.50;;;15.70;99.90;;;;;;4935872;29;20426;-74
2021/10/23 11:00:45;;;;;;;3.97;2.80;;;15.00;99.90;;;;;;4936319;29;20416;-74
2021/10/23 11:03:36;;;;;;;6.77;2.87;;;14.50;99.90;;;;;;4936718;29;21005;-73
2021/10/23 11:06:33;;;;;;;8.83;2.40;;;14.20;99.90;;;;;;4936748;29;21005;-73
2021/10/23 11:09:10;;;;;;;4.27;2.70;;;14.00;99.90;;;;;;4936483;29;20413;-73
2021/10/23 11:11:45;;;;;;;10.53;3.00;;;14.60;99.90;;;;;;4936664;29;20444;-74
2021/10/23 11:14:22;;;;;;;10.90;2.50;;;15.00;99.90;;;;;;4936304;29;20421;-73
2021/10/23 11:19:34;;;;;;;2.90;2.00;;;15.70;99.90;;;;;;4936422;29;20800;-74
2021/10/23 11:22:16;;;;;;;4.73;2.30;;;16.10;99.90;;;;;;4936105;29;20433;-71
2021/10/23 11:24:48;;;;;;;3.57;2.27;;;16.40;99.90;;;;;;4936229;29;20424;-74
2021/10/23 11:27:43;;;;;;;3.40;2.30;;;16.40;99.90;;;;;;4936521;29;20793;-74
2021/10/23 11:30:29;;;;;;;5.50;4.03;;;16.70;99.90;;;;;;4936182;29;20974;-73
2021/10/23 11:32:58;;;;;;;5.00;1.90;;;16.90;99.90;;;;;;4934642;29;20866;-73
2021/10/23 11:35:40;;;;;;;4.87;1.60;;;17.20;99.90;;;;;;4935017;29;20468;-73
2021/10/23 11:38:10;;;;;;;5.93;2.43;;;17.50;99.90;;;;;;4936124;29;20435;-74
2021/10/23 11:40:37;;;;;;;4.10;1.87;;;17.40;99.90;;;;;;4935341;29;20440;-72
2021/10/23 11:43:03;;;;;;;3.50;2.20;;;17.40;99.90;;;;;;4935115;29;20927;-73
2021/10/23 11:45:31;;;;;;;10.30;7.70;;;16.90;99.90;;;;;;4936116;29;20429;-73
2021/10/23 11:48:00;;;;;;;4.40;2.87;;;16.30;99.90;;;;;;4935736;29;20421;-73
2021/10/23 11:50:29;;;;;;;6.60;3.07;;;15.80;99.90;;;;;;4934835;29;20879;-72
2021/10/23 11:52:58;;;;;;;4.10;2.20;;;15.30;99.90;;;;;;4935438;29;20445;-73
2021/10/23 11:56:05;;;;;;;4.17;2.80;;;14.80;99.90;;;;;;4935878;29;20909;-73
2021/10/23 11:58:33;;;;;;;6.30;2.50;;;14.50;99.90;;;;;;4934730;29;20436;-72
2021/10/23 12:01:01;;;;;;;4.10;2.63;;;14.30;99.90;;;;;;4935633;29;20437;-73
2021/10/23 12:03:31;;;;;;;2.87;2.23;;;14.20;99.90;;;;;;4935578;29;20425;-73
2021/10/23 12:05:57;;;;;;;4.40;2.20;;;14.00;99.90;;;;;;4935505;29;20429;-71
2021/10/23 12:08:28;;;;;;;1.53;1.43;;;13.80;99.90;;;;;;4935788;29;20993;-73
2021/10/23 12:11:24;;;;;;;7.03;1.90;;;13.80;99.90;;;;;;4935402;29;20698;-73
2021/10/23 12:14:08;;;;;;;2.83;1.83;;;14.10;99.90;;;;;;4933988;29;20425;-73
2021/10/23 12:16:33;;;;;;;3.73;1.73;;;14.20;99.90;;;;;;4935318;29;20460;-71
2021/10/23 12:19:11;;;;;;;5.43;1.93;;;14.00;99.90;;;;;;4935429;29;20417;-71
2021/10/23 12:21:39;;;;;;;2.40;1.77;;;14.00;99.90;;;;;;4935168;29;20193;-73
2021/10/23 12:24:17;;;;;;;4.57;2.43;;;13.90;99.90;;;;;;4935161;29;20989;-72
2021/10/23 12:26:58;;;;;;;5.32;3.05;;;13.70;99.90;;;;;;4932883;29;20461;-71
2021/10/23 12:29:35;;;;;;;3.60;2.50;;;13.50;99.90;;;;;;4935398;29;20181;-71
2021/10/23 12:32:05;;;;;;;8.23;2.90;;;13.30;99.90;;;;;;4933575;29;20469;-73
2021/10/23 12:34:52;;;;;;;5.10;2.60;;;13.20;99.90;;;;;;4935161;29;20429;-74
2021/10/23 12:37:26;;;;;;;2.63;1.70;;;13.30;99.90;;;;;;4935086;29;20417;-73
2021/10/23 12:40:13;;;;;;;1.87;1.67;;;13.30;99.90;;;;;;4935070;29;20417;-73
2021/10/23 12:42:47;;;;;;;2.43;1.87;;;13.30;99.90;;;;;;4934546;29;20970;-73
2021/10/23 12:45:24;;;;;;;3.07;1.57;;;13.30;99.90;;;;;;4934144;29;20420;-73
2021/10/23 12:47:52;;;;;;;5.50;3.50;;;13.20;99.90;;;;;;4934352;29;20468;-73
2021/10/23 12:50:22;;;;;;;13.60;2.00;;;13.10;99.90;;;;;;4935062;29;20443;-73
2021/10/23 12:52:48;;;;;;;5.40;1.40;;;13.20;99.90;;;;;;4934348;29;20437;-73
2021/10/23 12:55:14;;;;;;;4.93;1.40;;;13.10;99.90;;;;;;4935067;29;20543;-73
2021/10/23 12:57:39;;;;;;;2.40;1.73;;;13.10;99.90;;;;;;4934866;29;20177;-73
2021/10/23 13:00:07;;;;;;;3.33;1.40;;;13.10;99.90;;;;;;4934634;29;20411;-73
2021/10/23 13:02:33;;;;;;;3.50;1.43;;;13.00;99.90;;;;;;4934540;29;20208;-73
2021/10/23 13:04:58;;;;;;;5.00;1.70;;;13.00;99.90;;;;;;4934580;29;20922;-74
2021/10/23 13:07:24;;;;;;;1.43;1.33;;;13.00;99.90;;;;;;4934758;29;20554;-73
2021/10/23 13:09:49;;;;;;;6.23;1.90;;;13.00;99.90;;;;;;4934521;29;20236;-73
2021/10/23 13:12:15;;;;;;;3.57;1.57;;;13.00;99.90;;;;;;4933085;29;20280;-74
2021/10/23 13:14:40;;;;;;;3.57;2.00;;;13.10;99.90;;;;;;4934282;29;20889;-74
2021/10/23 13:17:06;;;;;;;6.40;1.73;;;13.10;99.90;;;;;;4934642;29;20195;-73
2021/10/23 13:19:32;;;;;;;5.63;1.97;;;13.30;99.90;;;;;;4934411;29;20181;-73
2021/10/23 13:21:58;;;;;;;2.60;1.80;;;13.40;99.90;;;;;;4934293;29;20193;-73
2021/10/23 13:24:23;;;;;;;3.90;1.30;;;13.30;99.90;;;;;;4934251;29;20953;-73
2021/10/23 13:26:49;;;;;;;2.70;1.60;;;13.20;99.90;;;;;;4934289;29;20563;-73
2021/10/23 13:29:15;;;;;;;3.90;1.10;;;13.10;99.90;;;;;;4933157;29;20181;-73
2021/10/23 13:31:41;;;;;;;5.67;2.43;;;13.20;99.90;;;;;;4934070;29;20613;-73
2021/10/23 13:34:06;;;;;;;6.33;1.37;;;13.30;99.90;;;;;;4934193;29;20421;-73
2021/10/23 13:36:32;;;;;;;2.83;1.50;;;13.40;99.90;;;;;;4934196;29;20588;-73
2021/10/23 13:38:57;;;;;;;4.60;1.67;;;13.40;99.90;;;;;;4934108;29;20258;-73
2021/10/23 13:41:24;;;;;;;3.43;1.63;;;13.40;99.90;;;;;;4934255;29;20686;-73
2021/10/23 13:43:50;;;;;;;3.93;1.80;;;13.30;99.90;;;;;;4933970;29;20328;-73
2021/10/23 13:46:15;;;;;;;4.93;1.87;;;13.40;99.90;;;;;;4934123;29;20428;-73
2021/10/23 13:48:41;;;;;;;1.73;1.10;;;13.40;99.90;;;;;;4934047;29;20918;-73
2021/10/23 13:51:06;;;;;;;4.07;1.80;;;13.40;99.90;;;;;;4934042;29;20571;-74
2021/10/23 13:53:34;;;;;;;1.97;1.20;;;13.40;99.90;;;;;;4933958;29;20181;-73
2021/10/23 13:56:00;;;;;;;1.50;1.10;;;13.40;99.90;;;;;;4934100;29;20212;-74
2021/10/23 13:58:25;;;;;;;4.20;1.03;;;13.40;99.90;;;;;;4932738;29;20497;-73
2021/10/23 14:00:51;;;;;;;2.57;1.60;;;13.40;99.90;;;;;;4933989;29;20204;-72
2021/10/23 14:03:21;;;;;;;1.67;1.20;;;13.30;99.90;;;;;;4933710;29;20555;-73
2021/10/23 14:05:47;;;;;;;4.70;1.50;;;13.40;99.90;;;;;;4937961;29;20264;-73
2021/10/23 14:08:13;;;;;;;2.67;1.07;;;13.30;99.90;;;;;;4937793;29;20851;-73
2021/10/23 14:10:38;;;;;;;3.63;2.73;;;13.20;99.90;;;;;;4937865;29;20911;-73
2021/10/23 14:13:04;;;;;;;5.50;3.90;;;13.30;99.90;;;;;;4937395;29;20420;-73
2021/10/23 14:15:29;;;;;;;2.70;1.00;;;13.30;99.90;;;;;;4936519;29;20273;-73
2021/10/23 14:17:55;;;;;;;2.60;1.20;;;13.30;99.90;;;;;;4937418;29;20181;-73
2021/10/23 14:20:21;;;;;;;3.33;1.10;;;13.30;99.90;;;;;;4937788;29;20212;-73
2021/10/23 14:22:47;;;;;;;5.70;1.37;;;13.30;99.90;;;;;;4937082;29;20552;-73
2021/10/23 14:25:13;;;;;;;4.40;1.30;;;13.20;99.90;;;;;;4937749;29;20417;-73
2021/10/23 14:30:16;;;;;;;6.93;1.47;;;13.10;99.90;;;;;;4937709;29;20177;-73
2021/10/23 14:32:43;;;;;;;1.87;1.37;;;13.10;99.90;;;;;;4936878;29;20604;-74
2021/10/23 14:35:10;;;;;;;1.40;1.20;;;12.80;99.90;;;;;;4937510;29;21032;-73
2021/10/23 14:37:36;;;;;;;2.17;1.50;;;12.70;99.90;;;;;;4937486;29;20425;-74
2021/10/23 14:40:03;;;;;;;1.30;1.13;;;12.50;99.90;;;;;;4937202;29;20841;-73
2021/10/23 14:42:29;;;;;;;4.83;1.27;;;12.40;99.90;;;;;;4937024;29;20202;-74
2021/10/23 14:44:55;;;;;;;4.00;1.70;;;12.30;99.90;;;;;;4936997;29;20421;-74
2021/10/23 14:47:20;;;;;;;2.43;1.53;;;12.20;99.90;;;;;;4937225;29;20181;-73
2021/10/23 14:49:46;;;;;;;1.40;1.30;;;12.10;99.90;;;;;;4936911;29;20256;-73
2021/10/23 14:52:12;;;;;;;2.20;1.50;;;12.00;99.90;;;;;;4935528;29;20674;-73
2021/10/23 14:54:38;;;;;;;6.40;1.50;;;12.00;99.90;;;;;;4936923;29;20181;-73
2021/10/23 14:57:04;;;;;;;1.70;0.93;;;11.90;99.90;;;;;;4937024;29;20844;-73
2021/10/23 14:59:30;;;;;;;4.70;1.00;;;11.80;99.90;;;;;;4936897;29;20421;-73
2021/10/23 15:01:56;;;;;;;4.97;1.13;;;11.80;99.90;;;;;;4936641;29;20491;-73
2021/10/23 15:04:21;;;;;;;4.00;1.80;;;11.70;99.90;;;;;;4936761;29;20632;-73
2021/10/23 15:06:48;;;;;;;4.33;1.27;;;11.70;99.90;;;;;;4936578;29;20184;-73
2021/10/23 15:09:14;;;;;;;1.50;1.37;;;11.60;99.90;;;;;;4935646;29;20177;-73
2021/10/23 15:11:39;;;;;;;2.10;1.37;;;11.60;99.90;;;;;;4936459;29;20963;-73
2021/10/23 15:14:05;;;;;;;4.87;1.80;;;11.60;99.90;;;;;;4936533;29;20177;-73
2021/10/23 15:16:30;;;;;;;3.50;1.43;;;11.60;99.90;;;;;;4935267;29;20209;-72
2021/10/23 15:18:56;;;;;;;2.90;1.20;;;11.60;99.90;;;;;;4936553;29;20180;-73
2021/10/23 15:21:21;;;;;;;2.30;1.70;;;11.60;99.90;;;;;;4936427;29;20204;-73
2021/10/23 15:23:47;;;;;;;2.20;1.67;;;11.50;99.90;;;;;;4936191;29;20176;-73
2021/10/23 15:26:12;;;;;;;4.20;1.67;;;11.50;99.90;;;;;;4936433;29;20272;-72
2021/10/23 15:28:38;;;;;;;3.20;1.87;;;11.50;99.90;;;;;;4919356;29;20737;-73
2021/10/23 15:31:04;;;;;;;2.27;1.40;;;11.40;99.90;;;;;;4936185;29;20566;-72
2021/10/23 15:33:30;;;;;;;4.37;1.93;;;11.40;99.90;;;;;;4936030;29;20212;-73
2021/10/23 15:35:58;;;;;;;2.77;1.70;;;11.30;99.90;;;;;;4936488;29;20468;-72
2021/10/23 15:38:29;;;;;;;1.93;1.47;;;11.30;99.90;;;;;;4936265;29;20180;-73
2021/10/23 15:41:25;;;;;;;1.80;1.07;;;11.20;99.90;;;;;;4936162;29;20863;-72
2021/10/23 15:43:53;;;;;;;1.57;1.13;;;11.20;99.90;;;;;;4935927;29;20782;-73
2021/10/23 15:46:19;;;;;;;2.60;1.33;;;11.10;99.90;;;;;;4936350;29;20413;-73
2021/10/23 15:48:45;;;;;;;5.67;1.03;;;11.10;99.90;;;;;;4935753;29;20508;-73
2021/10/23 15:51:11;;;;;;;8.10;1.90;;;11.00;99.90;;;;;;4936136;29;20200;-73
2021/10/23 15:53:37;;;;;;;3.70;1.70;;;10.90;99.90;;;;;;4935478;29;20526;-73
2021/10/23 15:56:04;;;;;;;6.37;1.63;;;10.80;99.90;;;;;;4935978;29;20456;-73
2021/10/23 15:58:30;;;;;;;5.20;1.47;;;10.80;99.90;;;;;;4935710;29;20782;-73
2021/10/23 16:00:55;;;;;;;2.13;1.93;;;10.70;99.90;;;;;;4936057;29;21016;-73
2021/10/23 16:03:21;;;;;;;4.53;1.70;;;10.60;99.90;;;;;;4935454;29;20409;-73
2021/10/23 16:05:46;;;;;;;1.90;1.20;;;10.50;99.90;;;;;;4935752;29;20185;-73
2021/10/23 16:08:12;;;;;;;7.10;1.90;;;10.50;99.90;;;;;;4935595;29;20574;-73
2021/10/23 16:10:39;;;;;;;5.23;1.70;;;10.30;99.90;;;;;;4935611;29;20218;-73
2021/10/23 16:13:08;;;;;;;7.63;1.90;;;10.20;99.90;;;;;;4935321;29;20187;-73
2021/10/23 16:15:34;;;;;;;7.43;1.80;;;10.10;99.90;;;;;;4935602;29;20463;-72
2021/10/23 16:18:00;;;;;;;2.80;1.70;;;10.10;99.90;;;;;;4918736;29;20808;-73
2021/10/23 16:20:26;;;;;;;3.93;2.37;;;10.00;99.90;;;;;;4934182;29;20445;-73
2021/10/23 16:22:54;;;;;;;4.70;2.67;;;9.90;99.90;;;;;;4934963;29;20465;-73
2021/10/23 16:25:20;;;;;;;5.53;2.60;;;9.80;99.90;;;;;;4935325;29;20420;-73
2021/10/23 16:27:45;;;;;;;4.00;2.23;;;9.70;99.90;;;;;;4933630;29;20438;-73
2021/10/23 16:30:11;;;;;;;4.83;2.40;;;9.60;99.90;;;;;;4935296;29;20917;-72
2021/10/23 16:32:37;;;;;;;6.60;2.07;;;9.40;99.90;;;;;;4934856;29;20605;-72
2021/10/23 16:35:03;;;;;;;6.00;2.50;;;9.20;99.90;;;;;;4934991;29;20489;-74
2021/10/23 16:37:29;;;;;;;3.13;1.90;;;9.00;99.90;;;;;;4935284;29;20209;-73
2021/10/23 16:39:54;;;;;;;4.67;2.30;;;8.80;99.90;;;;;;4934904;29;20507;-74
2021/10/23 16:42:20;;;;;;;3.23;1.83;;;8.70;99.90;;;;;;4934813;29;20191;-74
2021/10/23 16:44:48;;;;;;;3.63;2.40;;;8.60;99.90;;;;;;4935056;29;20675;-73
2021/10/23 16:47:13;;;;;;;2.70;2.00;;;8.40;99.90;;;;;;4934783;29;20179;-73
2021/10/23 16:49:39;;;;;;;5.87;2.50;;;8.40;99.90;;;;;;4935103;29;20508;-74
2021/10/23 16:52:05;;;;;;;5.77;2.50;;;8.20;99.90;;;;;;4934645;29;20200;-74
2021/10/23 16:54:30;;;;;;;5.07;2.93;;;8.10;99.90;;;;;;4935032;29;20207;-74
2021/10/23 16:56:56;;;;;;;2.90;2.20;;;7.90;99.90;;;;;;4934712;29;20233;-73
2021/10/23 16:59:21;;;;;;;4.50;1.90;;;7.80;99.90;;;;;;4934971;29;20176;-74
2021/10/23 17:01:47;;;;;;;8.90;2.83;;;7.60;99.90;;;;;;4934565;29;20665;-74
2021/10/23 17:04:13;;;;;;;4.13;2.67;;;7.50;99.90;;;;;;4933484;29;20650;-74
2021/10/23 17:06:39;;;;;;;8.30;2.20;;;7.40;99.90;;;;;;4934589;29;20181;-73
2021/10/23 17:09:05;;;;;;;2.57;1.97;;;7.30;99.90;;;;;;4934642;29;20204;-73
2021/10/23 17:11:31;;;;;;;5.90;3.17;;;7.20;99.90;;;;;;4932425;29;20488;-74
2021/10/23 17:13:56;;;;;;;4.83;2.10;;;7.20;99.90;;;;;;4932010;29;20196;-74
2021/10/23 17:16:22;;;;;;;5.50;2.40;;;7.10;99.90;;;;;;4924398;29;20274;-73
2021/10/23 17:18:47;;;;;;;4.67;2.40;;;7.00;99.90;;;;;;4933806;29;20249;-74
2021/10/23 17:21:13;;;;;;;6.70;3.00;;;7.00;99.90;;;;;;4934073;29;20340;-73
2021/10/23 17:23:39;;;;;;;3.33;3.03;;;6.90;99.90;;;;;;4933392;29;20266;-74
2021/10/23 17:26:05;;;;;;;5.20;3.80;;;6.90;99.90;;;;;;4934022;29;20753;-73
2021/10/23 17:28:31;;;;;;;5.93;3.47;;;6.80;99.90;;;;;;4922205;29;20852;-74
2021/10/23 17:30:58;;;;;;;4.60;2.63;;;6.70;99.90;;;;;;4933637;29;20467;-73
2021/10/23 17:33:24;;;;;;;3.93;3.40;;;6.60;99.90;;;;;;4933859;29;20649;-74